sensor_id;sensor_type;location;lat;lon;timestamp;temperature;humidity
18733;DHT22;9495;51.210;2.934;2023-03-20T00:02:05;6.80;99.90
18733;DHT22;9495;51.210;2.934;2023-03-20T00:04:34;6.80;99.90
18733;DHT22;9495;51.210;2.934;2023-03-20T00:07:04;6.90;99.90
18733;DHT22;9495;51.210;2.934;2023-03-20T00:09:36;6.90;99.90
18733;DHT22;9495;51.210;2.934;2023-03-20T00:12:05;6.90;99.90
18733;DHT22;9495;51.210;2.934;2023-03-20T00:14:33;7.00;99.90
18733;DHT22;9495;51.210;2.934;2023-03-20T00:17:08;7.10;99.90
18733;DHT22;9495;51.210;2.934;2023-03-20T00:19:37;7.00;99.90
18733;DHT22;9495;51.210;2.934;2023-03-20T00:22:08;7.00;99.90
18733;DHT22;9495;51.210;2.934;2023-03-20T00:24:36;7.00;99.90
18733;DHT22;9495;51.210;2.934;2023-03-20T00:27:05;7.00;99.90
18733;DHT22;9495;51.210;2.934;2023-03-20T00:29:34;6.90;99.90
18733;DHT22;9495;51.210;2.934;2023-03-20T00:32:02;6.80;99.90
18733;DHT22;9495;51.210;2.934;2023-03-20T00:34:31;6.80;99.90
18733;DHT22;9495;51.210;2.934;2023-03-20T00:36:59;6.90;99.90
18733;DHT22;9495;51.210;2.934;2023-03-20T00:39:30;6.90;99.90
18733;DHT22;9495;51.210;2.934;2023-03-20T00:42:01;6.90;99.90
18733;DHT22;9495;51.210;2.934;2023-03-20T00:44:33;6.90;99.90
18733;DHT22;9495;51.210;2.934;2023-03-20T00:47:05;6.80;99.90
18733;DHT22;9495;51.210;2.934;2023-03-20T00:49:34;6.80;99.90
18733;DHT22;9495;51.210;2.934;2023-03-20T00:52:05;6.90;99.90
18733;DHT22;9495;51.210;2.934;2023-03-20T00:54:36;6.80;99.90
18733;DHT22;9495;51.210;2.934;2023-03-20T00:57:06;6.70;99.90
18733;DHT22;9495;51.210;2.934;2023-03-20T00:59:38;6.70;99.90
18733;DHT22;9495;51.210;2.934;2023-03-20T01:02:09;6.70;99.90
18733;DHT22;9495;51.210;2.934;2023-03-20T01:04:40;6.60;99.90
18733;DHT22;9495;51.210;2.934;2023-03-20T01:07:12;6.60;99.90
18733;DHT22;9495;51.210;2.934;2023-03-20T01:09:43;6.60;99.90
18733;DHT22;9495;51.210;2.934;2023-03-20T01:12:14;6.60;99.90
18733;DHT22;9495;51.210;2.934;2023-03-20T01:14:43;6.50;99.90
18733;DHT22;9495;51.210;2.934;2023-03-20T01:17:17;6.60;99.90
18733;DHT22;9495;51.210;2.934;2023-03-20T01:19:46;6.60;99.90
18733;DHT22;9495;51.210;2.934;2023-03-20T01:22:15;6.60;99.90
18733;DHT22;9495;51.210;2.934;2023-03-20T01:24:46;6.60;99.90
18733;DHT22;9495;51.210;2.934;2023-03-20T01:27:17;6.50;99.90
18733;DHT22;9495;51.210;2.934;2023-03-20T01:29:46;6.50;99.90
18733;DHT22;9495;51.210;2.934;2023-03-20T01:32:19;6.50;99.90
18733;DHT22;9495;51.210;2.934;2023-03-20T01:34:47;6.50;99.90
18733;DHT22;9495;51.210;2.934;2023-03-20T01:37:17;6.60;99.90
18733;DHT22;9495;51.210;2.934;2023-03-20T01:39:47;6.60;99.90
18733;DHT22;9495;51.210;2.934;2023-03-20T01:42:15;6.70;99.90
18733;DHT22;9495;51.210;2.934;2023-03-20T01:44:44;6.60;99.90
18733;DHT22;9495;51.210;2.934;2023-03-20T01:47:15;6.60;99.90
18733;DHT22;9495;51.210;2.934;2023-03-20T01:50:18;6.60;99.90
18733;DHT22;9495;51.210;2.934;2023-03-20T01:52:50;6.70;99.90
18733;DHT22;9495;51.210;2.934;2023-03-20T01:55:21;6.70;99.90
18733;DHT22;9495;51.210;2.934;2023-03-20T01:57:50;6.70;99.90
18733;DHT22;9495;51.210;2.934;2023-03-20T02:00:20;6.60;99.90
18733;DHT22;9495;51.210;2.934;2023-03-20T02:02:49;6.60;99.90
18733;DHT22;9495;51.210;2.934;2023-03-20T02:05:20;6.70;99.90
18733;DHT22;9495;51.210;2.934;2023-03-20T02:07:55;6.70;99.90
18733;DHT22;9495;51.210;2.934;2023-03-20T02:10:28;6.70;99.90
18733;DHT22;9495;51.210;2.934;2023-03-20T02:12:57;6.70;99.90
18733;DHT22;9495;51.210;2.934;2023-03-20T02:15:28;6.60;99.90
18733;DHT22;9495;51.210;2.934;2023-03-20T02:17:57;6.70;99.90
18733;DHT22;9495;51.210;2.934;2023-03-20T02:20:33;6.70;99.90
18733;DHT22;9495;51.210;2.934;2023-03-20T02:26:25;6.80;99.90
18733;DHT22;9495;51.210;2.934;2023-03-20T02:41:24;6.80;99.90
18733;DHT22;9495;51.210;2.934;2023-03-20T02:44:01;6.90;99.90
18733;DHT22;9495;51.210;2.934;2023-03-20T02:46:42;7.00;99.90
18733;DHT22;9495;51.210;2.934;2023-03-20T02:49:20;7.10;99.90
18733;DHT22;9495;51.210;2.934;2023-03-20T02:51:57;7.00;99.90
18733;DHT22;9495;51.210;2.934;2023-03-20T02:54:34;7.20;99.90
18733;DHT22;9495;51.210;2.934;2023-03-20T02:57:08;7.20;99.90
18733;DHT22;9495;51.210;2.934;2023-03-20T02:59:44;7.10;99.90
18733;DHT22;9495;51.210;2.934;2023-03-20T03:02:16;7.20;99.90
18733;DHT22;9495;51.210;2.934;2023-03-20T03:04:50;7.20;99.90
18733;DHT22;9495;51.210;2.934;2023-03-20T03:07:21;7.30;99.90
18733;DHT22;9495;51.210;2.934;2023-03-20T03:09:55;7.20;99.90
18733;DHT22;9495;51.210;2.934;2023-03-20T03:12:29;7.20;99.90
18733;DHT22;9495;51.210;2.934;2023-03-20T03:15:00;7.30;99.90
18733;DHT22;9495;51.210;2.934;2023-03-20T03:17:31;7.40;99.90
18733;DHT22;9495;51.210;2.934;2023-03-20T03:20:05;7.40;99.90
18733;DHT22;9495;51.210;2.934;2023-03-20T03:22:35;7.50;99.90
18733;DHT22;9495;51.210;2.934;2023-03-20T03:25:08;7.40;99.90
18733;DHT22;9495;51.210;2.934;2023-03-20T03:27:40;7.40;99.90
18733;DHT22;9495;51.210;2.934;2023-03-20T03:30:13;7.30;99.90
18733;DHT22;9495;51.210;2.934;2023-03-20T03:32:46;7.40;99.90
18733;DHT22;9495;51.210;2.934;2023-03-20T03:35:19;7.40;99.90
18733;DHT22;9495;51.210;2.934;2023-03-20T03:37:55;7.40;99.90
18733;DHT22;9495;51.210;2.934;2023-03-20T03:40:32;7.50;99.90
18733;DHT22;9495;51.210;2.934;2023-03-20T03:43:06;7.50;99.90
18733;DHT22;9495;51.210;2.934;2023-03-20T03:45:38;7.50;99.90
18733;DHT22;9495;51.210;2.934;2023-03-20T03:48:11;7.60;99.90
18733;DHT22;9495;51.210;2.934;2023-03-20T03:50:44;7.70;99.90
18733;DHT22;9495;51.210;2.934;2023-03-20T03:53:17;8.00;99.90
18733;DHT22;9495;51.210;2.934;2023-03-20T03:55:50;7.80;99.90
18733;DHT22;9495;51.210;2.934;2023-03-20T03:58:23;7.80;99.90
18733;DHT22;9495;51.210;2.934;2023-03-20T04:00:57;7.80;99.90
18733;DHT22;9495;51.210;2.934;2023-03-20T04:03:30;7.80;99.90
18733;DHT22;9495;51.210;2.934;2023-03-20T04:06:02;7.80;99.90
18733;DHT22;9495;51.210;2.934;2023-03-20T04:08:32;7.80;99.90
18733;DHT22;9495;51.210;2.934;2023-03-20T04:11:02;7.70;99.90
18733;DHT22;9495;51.210;2.934;2023-03-20T04:13:30;7.80;99.90
18733;DHT22;9495;51.210;2.934;2023-03-20T04:15:59;7.70;99.90
18733;DHT22;9495;51.210;2.934;2023-03-20T04:18:27;7.90;99.90
18733;DHT22;9495;51.210;2.934;2023-03-20T04:20:56;8.00;99.90
18733;DHT22;9495;51.210;2.934;2023-03-20T04:23:24;7.90;99.90
18733;DHT22;9495;51.210;2.934;2023-03-20T04:25:53;7.90;99.90
18733;DHT22;9495;51.210;2.934;2023-03-20T04:28:23;7.90;99.90
18733;DHT22;9495;51.210;2.934;2023-03-20T04:30:52;7.90;99.90
18733;DHT22;9495;51.210;2.934;2023-03-20T04:33:20;7.90;99.90
18733;DHT22;9495;51.210;2.934;2023-03-20T04:35:49;8.00;99.90
18733;DHT22;9495;51.210;2.934;2023-03-20T04:38:18;8.00;99.90
18733;DHT22;9495;51.210;2.934;2023-03-20T04:40:47;8.00;99.90
18733;DHT22;9495;51.210;2.934;2023-03-20T04:43:16;7.90;99.90
18733;DHT22;9495;51.210;2.934;2023-03-20T04:45:46;8.00;99.90
18733;DHT22;9495;51.210;2.934;2023-03-20T04:48:14;8.10;99.90
18733;DHT22;9495;51.210;2.934;2023-03-20T04:50:43;8.10;99.90
18733;DHT22;9495;51.210;2.934;2023-03-20T04:53:14;8.20;99.90
18733;DHT22;9495;51.210;2.934;2023-03-20T04:55:44;8.20;99.90
18733;DHT22;9495;51.210;2.934;2023-03-20T04:58:14;8.10;99.90
18733;DHT22;9495;51.210;2.934;2023-03-20T05:00:43;8.20;99.90
18733;DHT22;9495;51.210;2.934;2023-03-20T05:03:12;8.30;99.90
18733;DHT22;9495;51.210;2.934;2023-03-20T05:05:41;8.20;99.90
18733;DHT22;9495;51.210;2.934;2023-03-20T05:08:09;8.40;99.90
18733;DHT22;9495;51.210;2.934;2023-03-20T05:10:38;8.50;99.90
18733;DHT22;9495;51.210;2.934;2023-03-20T05:13:06;8.70;99.90
18733;DHT22;9495;51.210;2.934;2023-03-20T05:15:35;8.40;99.90
18733;DHT22;9495;51.210;2.934;2023-03-20T05:18:04;8.50;99.90
18733;DHT22;9495;51.210;2.934;2023-03-20T05:20:33;8.60;99.90
18733;DHT22;9495;51.210;2.934;2023-03-20T05:23:02;8.30;99.90
18733;DHT22;9495;51.210;2.934;2023-03-20T05:25:32;8.30;99.90
18733;DHT22;9495;51.210;2.934;2023-03-20T05:28:01;8.20;99.90
18733;DHT22;9495;51.210;2.934;2023-03-20T05:30:30;8.50;99.90
18733;DHT22;9495;51.210;2.934;2023-03-20T05:32:59;8.30;99.90
18733;DHT22;9495;51.210;2.934;2023-03-20T05:35:27;8.20;99.90
18733;DHT22;9495;51.210;2.934;2023-03-20T05:37:57;8.30;99.90
18733;DHT22;9495;51.210;2.934;2023-03-20T05:40:26;8.40;99.90
18733;DHT22;9495;51.210;2.934;2023-03-20T05:42:55;8.60;99.90
18733;DHT22;9495;51.210;2.934;2023-03-20T05:45:23;8.50;99.90
18733;DHT22;9495;51.210;2.934;2023-03-20T05:47:52;8.40;99.90
18733;DHT22;9495;51.210;2.934;2023-03-20T05:50:20;8.70;99.90
18733;DHT22;9495;51.210;2.934;2023-03-20T05:52:49;8.70;99.90
18733;DHT22;9495;51.210;2.934;2023-03-20T05:55:19;8.50;99.90
18733;DHT22;9495;51.210;2.934;2023-03-20T05:57:47;8.70;99.90
18733;DHT22;9495;51.210;2.934;2023-03-20T06:00:16;8.40;99.90
18733;DHT22;9495;51.210;2.934;2023-03-20T06:02:45;8.60;99.90
18733;DHT22;9495;51.210;2.934;2023-03-20T06:05:14;8.40;99.90
18733;DHT22;9495;51.210;2.934;2023-03-20T06:07:42;8.50;99.90
18733;DHT22;9495;51.210;2.934;2023-03-20T06:10:11;8.50;99.90
18733;DHT22;9495;51.210;2.934;2023-03-20T06:12:41;8.80;99.90
18733;DHT22;9495;51.210;2.934;2023-03-20T06:15:09;9.20;99.90
18733;DHT22;9495;51.210;2.934;2023-03-20T06:17:38;8.90;99.90
18733;DHT22;9495;51.210;2.934;2023-03-20T06:20:08;8.80;99.90
18733;DHT22;9495;51.210;2.934;2023-03-20T06:22:36;8.70;99.90
18733;DHT22;9495;51.210;2.934;2023-03-20T06:25:06;9.70;99.90
18733;DHT22;9495;51.210;2.934;2023-03-20T06:27:34;9.40;99.90
18733;DHT22;9495;51.210;2.934;2023-03-20T06:30:05;8.90;99.90
18733;DHT22;9495;51.210;2.934;2023-03-20T06:32:34;9.20;99.90
18733;DHT22;9495;51.210;2.934;2023-03-20T06:35:02;9.30;99.90
18733;DHT22;9495;51.210;2.934;2023-03-20T06:37:32;9.20;99.90
18733;DHT22;9495;51.210;2.934;2023-03-20T06:40:00;9.30;99.90
18733;DHT22;9495;51.210;2.934;2023-03-20T06:42:29;8.90;99.90
18733;DHT22;9495;51.210;2.934;2023-03-20T06:44:58;9.10;99.90
18733;DHT22;9495;51.210;2.934;2023-03-20T06:47:28;9.20;99.90
18733;DHT22;9495;51.210;2.934;2023-03-20T06:49:56;9.20;99.90
18733;DHT22;9495;51.210;2.934;2023-03-20T06:52:25;9.20;99.90
18733;DHT22;9495;51.210;2.934;2023-03-20T06:54:53;9.30;99.90
18733;DHT22;9495;51.210;2.934;2023-03-20T06:57:23;9.50;99.90
18733;DHT22;9495;51.210;2.934;2023-03-20T06:59:52;9.40;99.90
18733;DHT22;9495;51.210;2.934;2023-03-20T07:02:20;9.20;99.90
18733;DHT22;9495;51.210;2.934;2023-03-20T07:04:50;9.40;99.90
18733;DHT22;9495;51.210;2.934;2023-03-20T07:07:19;9.90;99.90
18733;DHT22;9495;51.210;2.934;2023-03-20T07:09:47;9.40;99.90
18733;DHT22;9495;51.210;2.934;2023-03-20T07:12:16;9.50;99.90
18733;DHT22;9495;51.210;2.934;2023-03-20T07:14:46;9.90;99.90
18733;DHT22;9495;51.210;2.934;2023-03-20T07:17:14;9.70;99.90
18733;DHT22;9495;51.210;2.934;2023-03-20T07:19:43;9.30;99.90
18733;DHT22;9495;51.210;2.934;2023-03-20T07:22:19;9.50;99.90
18733;DHT22;9495;51.210;2.934;2023-03-20T07:24:48;10.10;99.90
18733;DHT22;9495;51.210;2.934;2023-03-20T07:27:18;9.40;99.90
18733;DHT22;9495;51.210;2.934;2023-03-20T07:29:47;10.20;99.90
18733;DHT22;9495;51.210;2.934;2023-03-20T07:32:15;9.60;99.90
18733;DHT22;9495;51.210;2.934;2023-03-20T07:34:44;9.70;99.90
18733;DHT22;9495;51.210;2.934;2023-03-20T07:37:14;9.80;99.90
18733;DHT22;9495;51.210;2.934;2023-03-20T07:39:43;11.00;99.90
18733;DHT22;9495;51.210;2.934;2023-03-20T07:42:11;10.50;99.90
18733;DHT22;9495;51.210;2.934;2023-03-20T07:44:40;10.40;99.90
18733;DHT22;9495;51.210;2.934;2023-03-20T07:47:09;10.10;99.90
18733;DHT22;9495;51.210;2.934;2023-03-20T07:49:38;10.00;99.90
18733;DHT22;9495;51.210;2.934;2023-03-20T07:52:07;10.10;99.90
18733;DHT22;9495;51.210;2.934;2023-03-20T07:54:37;10.10;99.90
18733;DHT22;9495;51.210;2.934;2023-03-20T07:57:05;10.40;99.90
18733;DHT22;9495;51.210;2.934;2023-03-20T07:59:34;10.10;99.90
18733;DHT22;9495;51.210;2.934;2023-03-20T08:02:02;10.50;99.90
18733;DHT22;9495;51.210;2.934;2023-03-20T08:04:31;10.90;99.90
18733;DHT22;9495;51.210;2.934;2023-03-20T08:07:00;11.10;99.90
18733;DHT22;9495;51.210;2.934;2023-03-20T08:09:29;11.40;99.90
18733;DHT22;9495;51.210;2.934;2023-03-20T08:11:58;11.20;99.90
18733;DHT22;9495;51.210;2.934;2023-03-20T08:14:27;10.60;99.90
18733;DHT22;9495;51.210;2.934;2023-03-20T08:16:55;10.60;99.90
18733;DHT22;9495;51.210;2.934;2023-03-20T08:19:40;10.20;99.90
18733;DHT22;9495;51.210;2.934;2023-03-20T08:22:08;11.50;99.90
18733;DHT22;9495;51.210;2.934;2023-03-20T08:24:37;11.50;99.90
18733;DHT22;9495;51.210;2.934;2023-03-20T08:27:06;11.20;99.90
18733;DHT22;9495;51.210;2.934;2023-03-20T08:29:35;11.20;99.90
18733;DHT22;9495;51.210;2.934;2023-03-20T08:32:04;11.10;99.90
18733;DHT22;9495;51.210;2.934;2023-03-20T08:34:33;10.70;99.90
18733;DHT22;9495;51.210;2.934;2023-03-20T08:37:02;10.90;99.90
18733;DHT22;9495;51.210;2.934;2023-03-20T08:39:31;11.00;99.90
18733;DHT22;9495;51.210;2.934;2023-03-20T08:42:00;11.10;99.90
18733;DHT22;9495;51.210;2.934;2023-03-20T08:44:30;11.00;99.90
18733;DHT22;9495;51.210;2.934;2023-03-20T08:46:59;11.00;99.90
18733;DHT22;9495;51.210;2.934;2023-03-20T08:49:27;10.80;99.90
18733;DHT22;9495;51.210;2.934;2023-03-20T08:51:56;10.80;99.90
18733;DHT22;9495;51.210;2.934;2023-03-20T08:54:25;11.00;99.90
18733;DHT22;9495;51.210;2.934;2023-03-20T08:56:53;11.10;99.90
18733;DHT22;9495;51.210;2.934;2023-03-20T08:59:22;11.00;99.90
18733;DHT22;9495;51.210;2.934;2023-03-20T09:01:52;10.80;99.90
18733;DHT22;9495;51.210;2.934;2023-03-20T09:04:20;10.80;99.90
18733;DHT22;9495;51.210;2.934;2023-03-20T09:06:49;10.60;99.90
18733;DHT22;9495;51.210;2.934;2023-03-20T09:09:17;10.80;99.90
18733;DHT22;9495;51.210;2.934;2023-03-20T09:11:47;10.80;99.90
18733;DHT22;9495;51.210;2.934;2023-03-20T09:14:16;10.60;99.90
18733;DHT22;9495;51.210;2.934;2023-03-20T09:16:44;11.10;99.90
18733;DHT22;9495;51.210;2.934;2023-03-20T09:19:14;11.60;99.90
18733;DHT22;9495;51.210;2.934;2023-03-20T09:21:43;12.30;99.90
18733;DHT22;9495;51.210;2.934;2023-03-20T09:24:12;12.20;99.90
18733;DHT22;9495;51.210;2.934;2023-03-20T09:26:40;11.90;99.90
18733;DHT22;9495;51.210;2.934;2023-03-20T09:29:09;11.70;99.90
18733;DHT22;9495;51.210;2.934;2023-03-20T09:31:37;11.80;99.90
18733;DHT22;9495;51.210;2.934;2023-03-20T09:34:06;12.40;99.90
18733;DHT22;9495;51.210;2.934;2023-03-20T09:36:36;12.60;99.90
18733;DHT22;9495;51.210;2.934;2023-03-20T09:39:04;12.60;99.90
18733;DHT22;9495;51.210;2.934;2023-03-20T09:41:33;12.80;99.90
18733;DHT22;9495;51.210;2.934;2023-03-20T09:44:33;12.50;99.90
18733;DHT22;9495;51.210;2.934;2023-03-20T09:47:10;12.70;99.90
18733;DHT22;9495;51.210;2.934;2023-03-20T09:49:56;12.50;99.90
18733;DHT22;9495;51.210;2.934;2023-03-20T09:52:29;12.60;99.90
18733;DHT22;9495;51.210;2.934;2023-03-20T09:55:02;12.10;99.90
18733;DHT22;9495;51.210;2.934;2023-03-20T09:57:36;13.00;99.90
18733;DHT22;9495;51.210;2.934;2023-03-20T10:00:11;13.30;99.90
18733;DHT22;9495;51.210;2.934;2023-03-20T10:02:47;12.30;99.90
18733;DHT22;9495;51.210;2.934;2023-03-20T10:05:21;13.10;99.90
18733;DHT22;9495;51.210;2.934;2023-03-20T10:07:54;12.70;99.90
18733;DHT22;9495;51.210;2.934;2023-03-20T10:10:29;13.40;99.90
18733;DHT22;9495;51.210;2.934;2023-03-20T10:13:08;13.40;99.90
18733;DHT22;9495;51.210;2.934;2023-03-20T10:15:44;13.00;99.90
18733;DHT22;9495;51.210;2.934;2023-03-20T10:18:19;12.90;99.90
18733;DHT22;9495;51.210;2.934;2023-03-20T10:20:54;13.20;99.90
18733;DHT22;9495;51.210;2.934;2023-03-20T10:23:33;12.70;99.90
18733;DHT22;9495;51.210;2.934;2023-03-20T10:26:05;13.50;99.90
18733;DHT22;9495;51.210;2.934;2023-03-20T10:28:41;13.30;99.90
18733;DHT22;9495;51.210;2.934;2023-03-20T10:31:34;13.70;99.90
18733;DHT22;9495;51.210;2.934;2023-03-20T10:34:18;13.80;99.90
18733;DHT22;9495;51.210;2.934;2023-03-20T10:36:55;14.10;99.90
18733;DHT22;9495;51.210;2.934;2023-03-20T10:39:38;13.50;99.90
18733;DHT22;9495;51.210;2.934;2023-03-20T10:42:14;13.30;99.90
18733;DHT22;9495;51.210;2.934;2023-03-20T10:44:48;13.70;99.90
18733;DHT22;9495;51.210;2.934;2023-03-20T10:47:21;13.90;99.90
18733;DHT22;9495;51.210;2.934;2023-03-20T10:49:53;13.20;99.90
18733;DHT22;9495;51.210;2.934;2023-03-20T10:52:26;13.40;99.90
18733;DHT22;9495;51.210;2.934;2023-03-20T10:54:59;13.80;99.90
18733;DHT22;9495;51.210;2.934;2023-03-20T10:57:30;13.90;99.90
18733;DHT22;9495;51.210;2.934;2023-03-20T11:00:00;13.40;99.90
18733;DHT22;9495;51.210;2.934;2023-03-20T11:02:31;13.30;99.90
18733;DHT22;9495;51.210;2.934;2023-03-20T11:05:00;13.10;99.90
18733;DHT22;9495;51.210;2.934;2023-03-20T11:07:33;13.80;99.90
18733;DHT22;9495;51.210;2.934;2023-03-20T11:10:12;14.30;99.90
18733;DHT22;9495;51.210;2.934;2023-03-20T11:12:44;13.90;99.90
18733;DHT22;9495;51.210;2.934;2023-03-20T11:15:23;14.00;99.90
18733;DHT22;9495;51.210;2.934;2023-03-20T11:17:54;15.10;99.90
18733;DHT22;9495;51.210;2.934;2023-03-20T11:20:23;14.90;99.90
18733;DHT22;9495;51.210;2.934;2023-03-20T11:22:58;14.80;99.90
18733;DHT22;9495;51.210;2.934;2023-03-20T11:25:31;15.30;99.90
18733;DHT22;9495;51.210;2.934;2023-03-20T11:28:31;14.70;99.90
18733;DHT22;9495;51.210;2.934;2023-03-20T11:31:03;15.40;99.90
18733;DHT22;9495;51.210;2.934;2023-03-20T11:33:36;14.30;99.90
18733;DHT22;9495;51.210;2.934;2023-03-20T11:36:11;13.20;99.90
18733;DHT22;9495;51.210;2.934;2023-03-20T11:38:44;12.50;99.90
18733;DHT22;9495;51.210;2.934;2023-03-20T11:41:24;12.20;99.90
18733;DHT22;9495;51.210;2.934;2023-03-20T11:43:52;12.30;99.90
18733;DHT22;9495;51.210;2.934;2023-03-20T11:46:22;12.00;99.90
18733;DHT22;9495;51.210;2.934;2023-03-20T11:49:04;12.50;99.90
18733;DHT22;9495;51.210;2.934;2023-03-20T11:51:35;12.60;99.90
18733;DHT22;9495;51.210;2.934;2023-03-20T11:54:06;13.40;99.90
18733;DHT22;9495;51.210;2.934;2023-03-20T11:56:50;13.90;99.90
18733;DHT22;9495;51.210;2.934;2023-03-20T11:59:19;14.40;99.90
18733;DHT22;9495;51.210;2.934;2023-03-20T12:01:50;14.10;99.90
18733;DHT22;9495;51.210;2.934;2023-03-20T12:04:24;14.40;99.90
18733;DHT22;9495;51.210;2.934;2023-03-20T12:06:56;14.80;99.90
18733;DHT22;9495;51.210;2.934;2023-03-20T12:09:37;14.60;99.90
18733;DHT22;9495;51.210;2.934;2023-03-20T12:12:13;15.80;99.90
18733;DHT22;9495;51.210;2.934;2023-03-20T12:14:49;15.40;99.90
18733;DHT22;9495;51.210;2.934;2023-03-20T12:17:38;15.20;99.90
18733;DHT22;9495;51.210;2.934;2023-03-20T12:20:22;16.00;99.90
18733;DHT22;9495;51.210;2.934;2023-03-20T12:22:57;16.10;99.90
18733;DHT22;9495;51.210;2.934;2023-03-20T12:25:30;16.20;99.90
18733;DHT22;9495;51.210;2.934;2023-03-20T12:28:09;16.00;99.90
18733;DHT22;9495;51.210;2.934;2023-03-20T12:30:50;16.00;99.90
18733;DHT22;9495;51.210;2.934;2023-03-20T12:33:33;16.00;99.90
18733;DHT22;9495;51.210;2.934;2023-03-20T12:36:11;16.20;99.90
18733;DHT22;9495;51.210;2.934;2023-03-20T12:38:40;16.10;99.90
18733;DHT22;9495;51.210;2.934;2023-03-20T12:41:13;16.20;99.90
18733;DHT22;9495;51.210;2.934;2023-03-20T12:46:43;15.80;99.90
18733;DHT22;9495;51.210;2.934;2023-03-20T12:49:24;15.50;99.90
18733;DHT22;9495;51.210;2.934;2023-03-20T12:52:01;15.80;99.90
18733;DHT22;9495;51.210;2.934;2023-03-20T12:54:39;15.30;99.90
18733;DHT22;9495;51.210;2.934;2023-03-20T12:57:18;16.00;99.90
18733;DHT22;9495;51.210;2.934;2023-03-20T13:00:03;15.50;99.90
18733;DHT22;9495;51.210;2.934;2023-03-20T13:02:46;16.00;99.90
18733;DHT22;9495;51.210;2.934;2023-03-20T13:05:27;15.80;99.90
18733;DHT22;9495;51.210;2.934;2023-03-20T13:08:22;15.10;99.90
18733;DHT22;9495;51.210;2.934;2023-03-20T13:10:57;15.60;99.90
18733;DHT22;9495;51.210;2.934;2023-03-20T13:13:32;16.20;99.90
18733;DHT22;9495;51.210;2.934;2023-03-20T13:16:11;16.10;99.90
18733;DHT22;9495;51.210;2.934;2023-03-20T13:18:52;15.80;99.90
18733;DHT22;9495;51.210;2.934;2023-03-20T13:21:29;15.70;99.90
18733;DHT22;9495;51.210;2.934;2023-03-20T13:24:14;15.40;99.90
18733;DHT22;9495;51.210;2.934;2023-03-20T13:26:48;15.20;99.90
18733;DHT22;9495;51.210;2.934;2023-03-20T13:29:26;16.20;99.90
18733;DHT22;9495;51.210;2.934;2023-03-20T13:32:05;16.10;99.90
18733;DHT22;9495;51.210;2.934;2023-03-20T13:34:49;15.80;99.90
18733;DHT22;9495;51.210;2.934;2023-03-20T13:37:24;16.20;99.90
18733;DHT22;9495;51.210;2.934;2023-03-20T13:40:00;16.40;99.90
18733;DHT22;9495;51.210;2.934;2023-03-20T13:42:33;16.30;99.90
18733;DHT22;9495;51.210;2.934;2023-03-20T13:45:06;16.40;99.90
18733;DHT22;9495;51.210;2.934;2023-03-20T13:47:39;15.90;99.90
18733;DHT22;9495;51.210;2.934;2023-03-20T13:50:23;15.80;99.90
18733;DHT22;9495;51.210;2.934;2023-03-20T13:52:57;15.60;99.90
18733;DHT22;9495;51.210;2.934;2023-03-20T13:55:31;16.30;99.90
18733;DHT22;9495;51.210;2.934;2023-03-20T13:58:18;16.50;99.90
18733;DHT22;9495;51.210;2.934;2023-03-20T14:00:54;15.90;99.90
18733;DHT22;9495;51.210;2.934;2023-03-20T14:03:31;16.50;99.90
18733;DHT22;9495;51.210;2.934;2023-03-20T14:06:01;15.60;99.90
18733;DHT22;9495;51.210;2.934;2023-03-20T14:08:47;16.30;99.90
18733;DHT22;9495;51.210;2.934;2023-03-20T14:11:26;16.00;99.90
18733;DHT22;9495;51.210;2.934;2023-03-20T14:14:10;16.00;99.90
18733;DHT22;9495;51.210;2.934;2023-03-20T14:16:40;16.60;99.90
18733;DHT22;9495;51.210;2.934;2023-03-20T14:19:16;16.40;99.90
18733;DHT22;9495;51.210;2.934;2023-03-20T14:21:47;15.50;99.90
18733;DHT22;9495;51.210;2.934;2023-03-20T14:24:18;16.10;99.90
18733;DHT22;9495;51.210;2.934;2023-03-20T14:26:48;16.30;99.90
18733;DHT22;9495;51.210;2.934;2023-03-20T14:29:32;16.20;99.90
18733;DHT22;9495;51.210;2.934;2023-03-20T14:32:04;15.80;99.90
18733;DHT22;9495;51.210;2.934;2023-03-20T14:34:48;17.00;99.90
18733;DHT22;9495;51.210;2.934;2023-03-20T14:37:29;16.50;99.90
18733;DHT22;9495;51.210;2.934;2023-03-20T14:40:02;16.40;99.90
18733;DHT22;9495;51.210;2.934;2023-03-20T14:42:46;16.50;99.90
18733;DHT22;9495;51.210;2.934;2023-03-20T14:45:41;16.40;99.90
18733;DHT22;9495;51.210;2.934;2023-03-20T14:48:16;16.60;99.90
18733;DHT22;9495;51.210;2.934;2023-03-20T14:51:05;16.80;99.90
18733;DHT22;9495;51.210;2.934;2023-03-20T14:53:35;16.90;99.90
18733;DHT22;9495;51.210;2.934;2023-03-20T14:56:08;16.70;99.90
18733;DHT22;9495;51.210;2.934;2023-03-20T14:58:55;17.00;99.90
18733;DHT22;9495;51.210;2.934;2023-03-20T15:01:31;17.00;99.90
18733;DHT22;9495;51.210;2.934;2023-03-20T15:04:04;16.40;99.90
18733;DHT22;9495;51.210;2.934;2023-03-20T15:06:43;16.30;99.90
18733;DHT22;9495;51.210;2.934;2023-03-20T15:09:12;16.90;99.90
18733;DHT22;9495;51.210;2.934;2023-03-20T15:11:42;16.20;99.90
18733;DHT22;9495;51.210;2.934;2023-03-20T15:14:18;16.40;99.90
18733;DHT22;9495;51.210;2.934;2023-03-20T15:16:56;16.60;99.90
18733;DHT22;9495;51.210;2.934;2023-03-20T15:19:25;16.20;99.90
18733;DHT22;9495;51.210;2.934;2023-03-20T15:21:55;16.00;99.90
18733;DHT22;9495;51.210;2.934;2023-03-20T15:24:25;16.10;99.90
18733;DHT22;9495;51.210;2.934;2023-03-20T15:26:56;16.20;99.90
18733;DHT22;9495;51.210;2.934;2023-03-20T15:29:26;16.70;99.90
18733;DHT22;9495;51.210;2.934;2023-03-20T15:31:57;16.10;99.90
18733;DHT22;9495;51.210;2.934;2023-03-20T15:34:41;16.60;99.90
18733;DHT22;9495;51.210;2.934;2023-03-20T15:37:14;16.30;99.90
18733;DHT22;9495;51.210;2.934;2023-03-20T15:39:44;17.00;99.90
18733;DHT22;9495;51.210;2.934;2023-03-20T15:42:15;16.40;99.90
18733;DHT22;9495;51.210;2.934;2023-03-20T15:44:45;16.50;99.90
18733;DHT22;9495;51.210;2.934;2023-03-20T15:47:16;16.20;99.90
18733;DHT22;9495;51.210;2.934;2023-03-20T15:49:52;16.30;99.90
18733;DHT22;9495;51.210;2.934;2023-03-20T15:52:26;16.00;99.90
18733;DHT22;9495;51.210;2.934;2023-03-20T15:54:56;15.90;99.90
18733;DHT22;9495;51.210;2.934;2023-03-20T15:57:29;16.20;99.90
18733;DHT22;9495;51.210;2.934;2023-03-20T16:00:03;15.50;99.90
18733;DHT22;9495;51.210;2.934;2023-03-20T16:02:32;15.40;99.90
18733;DHT22;9495;51.210;2.934;2023-03-20T16:05:02;15.50;99.90
18733;DHT22;9495;51.210;2.934;2023-03-20T16:07:32;15.70;99.90
18733;DHT22;9495;51.210;2.934;2023-03-20T16:10:01;15.60;99.90
18733;DHT22;9495;51.210;2.934;2023-03-20T16:12:30;16.20;99.90
18733;DHT22;9495;51.210;2.934;2023-03-20T16:14:59;15.70;99.90
18733;DHT22;9495;51.210;2.934;2023-03-20T16:17:33;15.70;99.90
18733;DHT22;9495;51.210;2.934;2023-03-20T16:20:02;15.90;99.90
18733;DHT22;9495;51.210;2.934;2023-03-20T16:22:32;15.70;99.90
18733;DHT22;9495;51.210;2.934;2023-03-20T16:25:01;15.70;99.90
18733;DHT22;9495;51.210;2.934;2023-03-20T16:27:33;16.40;99.90
18733;DHT22;9495;51.210;2.934;2023-03-20T16:30:05;16.10;99.90
18733;DHT22;9495;51.210;2.934;2023-03-20T16:32:36;15.30;99.90
18733;DHT22;9495;51.210;2.934;2023-03-20T16:35:11;15.90;99.90
18733;DHT22;9495;51.210;2.934;2023-03-20T16:37:47;15.40;99.90
18733;DHT22;9495;51.210;2.934;2023-03-20T16:40:19;16.20;99.90
18733;DHT22;9495;51.210;2.934;2023-03-20T16:42:51;16.10;99.90
18733;DHT22;9495;51.210;2.934;2023-03-20T16:45:27;16.20;99.90